Time;durP1;ratioP1;P1;durP2;ratioP2;P2;SDS_P1;SDS_P2;PMS_P1;PMS_P2;Temp;Humidity;BMP_temperature;BMP_pressure;BME280_temperature;BME280_humidity;BME280_pressure;Samples;Min_cycle;Max_cycle;Signal;HPM_P1;HPM_P2
2023/12/17 00:00:14;;;;;;;11.65;8.68;;;;;;;;;;1048810;28;20052;-65
2023/12/17 00:00:44;;;;;;;15.82;9.15;;;;;;;;;;1050555;28;20048;-65
2023/12/17 00:01:35;;;;;;;12.63;8.25;;;;;;;;;;1047503;28;20055;-65
2023/12/17 00:02:06;;;;;;;16.20;8.38;;;;;;;;;;1050187;28;20055;-64
2023/12/17 00:02:36;;;;;;;15.10;8.98;;;;;;;;;;1049788;28;20087;-64
2023/12/17 00:03:07;;;;;;;11.02;8.30;;;;;;;;;;1049804;28;20090;-65
2023/12/17 00:03:37;;;;;;;14.00;8.85;;;;;;;;;;1049544;28;22178;-65
2023/12/17 00:04:08;;;;;;;15.85;9.20;;;;;;;;;;1047230;28;20048;-65
2023/12/17 00:04:39;;;;;;;13.38;7.93;;;;;;;;;;1043931;28;20056;-65
2023/12/17 00:05:09;;;;;;;14.73;8.85;;;;;;;;;;1048082;28;20068;-64
2023/12/17 00:05:40;;;;;;;16.52;9.18;;;;;;;;;;1049083;28;20048;-65
2023/12/17 00:06:11;;;;;;;18.98;9.40;;;;;;;;;;1047031;28;20044;-65
2023/12/17 00:06:42;;;;;;;15.23;8.80;;;;;;;;;;1045237;28;20060;-65
2023/12/17 00:07:12;;;;;;;14.35;8.45;;;;;;;;;;1045514;28;20055;-64
2023/12/17 00:07:43;;;;;;;14.18;8.57;;;;;;;;;;1044227;28;20048;-64
2023/12/17 00:08:14;;;;;;;14.43;9.38;;;;;;;;;;1044610;28;20147;-65
2023/12/17 00:08:45;;;;;;;13.80;9.02;;;;;;;;;;1047368;28;20057;-65
2023/12/17 00:09:16;;;;;;;15.73;9.32;;;;;;;;;;1046274;28;20056;-65
2023/12/17 00:09:47;;;;;;;13.68;9.20;;;;;;;;;;1045945;28;20052;-65
2023/12/17 00:10:18;;;;;;;13.80;8.35;;;;;;;;;;1044618;28;20078;-64
2023/12/17 00:10:49;;;;;;;14.75;8.73;;;;;;;;;;1046071;28;20040;-64
2023/12/17 00:11:19;;;;;;;12.90;8.52;;;;;;;;;;1048602;28;20047;-64
2023/12/17 00:11:50;;;;;;;13.90;8.68;;;;;;;;;;1051749;28;20125;-64
2023/12/17 00:12:20;;;;;;;13.20;8.70;;;;;;;;;;1046732;28;20044;-65
2023/12/17 00:12:51;;;;;;;11.75;8.40;;;;;;;;;;1044702;28;20425;-65
2023/12/17 00:13:21;;;;;;;15.73;9.13;;;;;;;;;;1050117;28;20044;-65
2023/12/17 00:13:52;;;;;;;13.43;9.05;;;;;;;;;;1050478;28;20051;-65
2023/12/17 00:14:23;;;;;;;13.10;8.57;;;;;;;;;;1045568;28;20053;-65
2023/12/17 00:14:53;;;;;;;13.18;7.20;;;;;;;;;;1045484;28;20097;-64
2023/12/17 00:15:24;;;;;;;15.85;9.07;;;;;;;;;;1042211;28;20056;-64
2023/12/17 00:15:54;;;;;;;14.32;8.32;;;;;;;;;;1044939;28;20052;-65
2023/12/17 00:16:25;;;;;;;14.45;8.30;;;;;;;;;;1045652;28;20441;-65
2023/12/17 00:16:56;;;;;;;12.65;8.38;;;;;;;;;;1044004;28;20542;-65
2023/12/17 00:17:27;;;;;;;11.88;8.40;;;;;;;;;;1045338;28;20178;-65
2023/12/17 00:17:57;;;;;;;14.75;8.43;;;;;;;;;;1045707;28;20051;-65
2023/12/17 00:18:28;;;;;;;13.75;8.45;;;;;;;;;;1047562;28;21904;-64
2023/12/17 00:18:58;;;;;;;17.85;9.60;;;;;;;;;;1045730;28;20578;-65
2023/12/17 00:19:29;;;;;;;14.55;8.90;;;;;;;;;;1045074;28;22038;-65
2023/12/17 00:19:59;;;;;;;17.05;9.05;;;;;;;;;;1045081;28;20647;-65
2023/12/17 00:20:30;;;;;;;14.25;7.85;;;;;;;;;;1045200;28;20443;-65
2023/12/17 00:21:00;;;;;;;15.35;9.38;;;;;;;;;;1046764;28;20439;-65
2023/12/17 00:21:32;;;;;;;13.10;8.27;;;;;;;;;;1043666;28;20049;-65
2023/12/17 00:22:03;;;;;;;13.55;9.00;;;;;;;;;;1046932;28;20093;-64
2023/12/17 00:22:33;;;;;;;17.67;9.05;;;;;;;;;;1045052;28;20071;-65
2023/12/17 00:23:04;;;;;;;15.40;8.10;;;;;;;;;;1046764;28;20052;-65
2023/12/17 00:23:35;;;;;;;15.98;8.75;;;;;;;;;;1046361;28;20072;-65
2023/12/17 00:24:05;;;;;;;13.10;8.32;;;;;;;;;;1045611;28;20059;-65
2023/12/17 00:24:36;;;;;;;12.90;8.20;;;;;;;;;;1046161;28;20101;-65
2023/12/17 00:25:07;;;;;;;13.15;8.65;;;;;;;;;;1046774;28;20032;-65
2023/12/17 00:25:38;;;;;;;13.55;8.38;;;;;;;;;;1045965;28;20056;-65
2023/12/17 00:26:08;;;;;;;13.23;8.85;;;;;;;;;;1046613;28;20048;-65
2023/12/17 00:26:39;;;;;;;14.48;9.30;;;;;;;;;;1044507;28;20049;-65
2023/12/17 00:27:09;;;;;;;14.27;8.57;;;;;;;;;;1045232;28;20064;-65
2023/12/17 00:27:40;;;;;;;15.38;8.52;;;;;;;;;;1047472;28;20045;-65
2023/12/17 00:28:10;;;;;;;15.20;8.30;;;;;;;;;;1047066;28;20079;-65
2023/12/17 00:28:41;;;;;;;11.57;7.90;;;;;;;;;;1051141;28;20054;-65
2023/12/17 00:29:12;;;;;;;13.15;8.73;;;;;;;;;;1048839;28;20067;-65
2023/12/17 00:29:42;;;;;;;12.63;8.57;;;;;;;;;;1051732;28;20044;-65
2023/12/17 00:30:13;;;;;;;13.82;8.40;;;;;;;;;;1048398;28;20052;-65
2023/12/17 00:30:44;;;;;;;14.73;8.63;;;;;;;;;;1050453;28;20052;-65
2023/12/17 00:31:14;;;;;;;15.57;8.40;;;;;;;;;;1048819;28;20056;-65
2023/12/17 00:31:45;;;;;;;15.20;9.38;;;;;;;;;;1049016;28;20135;-65
2023/12/17 00:32:15;;;;;;;12.88;8.10;;;;;;;;;;1049860;28;20063;-65
2023/12/17 00:32:46;;;;;;;11.52;8.60;;;;;;;;;;1049457;28;20056;-65
2023/12/17 00:33:17;;;;;;;13.90;8.27;;;;;;;;;;1049123;28;20050;-65
2023/12/17 00:33:47;;;;;;;11.23;7.70;;;;;;;;;;1050587;28;20060;-65
2023/12/17 00:34:18;;;;;;;11.30;7.75;;;;;;;;;;1054997;28;20036;-65
2023/12/17 00:34:48;;;;;;;13.48;8.18;;;;;;;;;;1053036;28;20138;-65
2023/12/17 00:35:20;;;;;;;13.10;7.72;;;;;;;;;;1054390;28;20088;-64
2023/12/17 00:35:51;;;;;;;12.27;8.18;;;;;;;;;;1050905;28;20048;-64
2023/12/17 00:36:22;;;;;;;12.27;7.68;;;;;;;;;;1046550;28;20555;-65
2023/12/17 00:36:53;;;;;;;12.85;7.43;;;;;;;;;;1044618;28;21943;-65
2023/12/17 00:37:24;;;;;;;15.05;7.60;;;;;;;;;;1050574;28;20606;-65
2023/12/17 00:37:54;;;;;;;13.55;7.47;;;;;;;;;;1049272;28;20715;-65
2023/12/17 00:38:25;;;;;;;14.05;7.72;;;;;;;;;;1045488;28;20075;-65
2023/12/17 00:38:55;;;;;;;20.10;9.07;;;;;;;;;;1044332;28;20099;-65
2023/12/17 00:39:26;;;;;;;14.10;7.97;;;;;;;;;;1045924;28;20049;-65
2023/12/17 00:39:56;;;;;;;11.10;7.13;;;;;;;;;;1046327;28;20056;-65
2023/12/17 00:40:27;;;;;;;10.43;7.97;;;;;;;;;;1044085;28;21989;-65
2023/12/17 00:40:58;;;;;;;15.95;8.05;;;;;;;;;;1045108;28;20993;-65
2023/12/17 00:41:28;;;;;;;11.48;8.05;;;;;;;;;;1050477;28;20047;-65
2023/12/17 00:41:59;;;;;;;10.98;8.30;;;;;;;;;;1049642;28;20124;-65
2023/12/17 00:42:30;;;;;;;16.30;8.77;;;;;;;;;;1050878;28;20051;-65
2023/12/17 00:43:00;;;;;;;11.65;7.20;;;;;;;;;;1047366;28;20048;-65
2023/12/17 00:43:31;;;;;;;14.00;7.60;;;;;;;;;;1048758;28;20450;-64
2023/12/17 00:44:01;;;;;;;13.68;7.68;;;;;;;;;;1048551;28;20131;-65
2023/12/17 00:44:32;;;;;;;16.20;8.27;;;;;;;;;;1046183;28;20508;-65
2023/12/17 00:45:03;;;;;;;13.82;8.55;;;;;;;;;;1046447;28;20052;-65
2023/12/17 00:45:33;;;;;;;15.50;8.65;;;;;;;;;;1047114;28;20093;-64
2023/12/17 00:46:04;;;;;;;13.55;8.20;;;;;;;;;;1047303;28;20135;-65
2023/12/17 00:46:34;;;;;;;12.02;7.28;;;;;;;;;;1050527;28;20060;-65
2023/12/17 00:47:05;;;;;;;14.05;7.47;;;;;;;;;;1047623;28;20054;-65
2023/12/17 00:47:35;;;;;;;11.07;7.68;;;;;;;;;;1051246;28;20101;-65
2023/12/17 00:48:06;;;;;;;13.40;8.05;;;;;;;;;;1049522;28;20040;-65
2023/12/17 00:48:37;;;;;;;15.10;8.05;;;;;;;;;;1049151;28;20067;-65
2023/12/17 00:49:07;;;;;;;14.10;8.27;;;;;;;;;;1050467;28;20040;-65
2023/12/17 00:49:38;;;;;;;14.88;8.20;;;;;;;;;;1050326;28;20491;-65
2023/12/17 00:50:08;;;;;;;13.05;8.02;;;;;;;;;;1049486;28;20055;-65
2023/12/17 00:50:39;;;;;;;14.88;7.82;;;;;;;;;;1050909;28;20139;-65
2023/12/17 00:51:11;;;;;;;13.68;7.88;;;;;;;;;;1049191;28;20139;-64
2023/12/17 00:51:42;;;;;;;15.93;8.05;;;;;;;;;;1050987;28;20079;-65
2023/12/17 00:52:12;;;;;;;12.82;8.18;;;;;;;;;;1049016;28;20048;-65
2023/12/17 00:52:43;;;;;;;18.02;8.52;;;;;;;;;;1051562;28;20544;-65
2023/12/17 00:53:13;;;;;;;13.52;8.00;;;;;;;;;;1046501;28;20044;-65
2023/12/17 00:53:44;;;;;;;12.68;7.88;;;;;;;;;;1046247;28;20049;-65
2023/12/17 00:54:14;;;;;;;9.93;7.43;;;;;;;;;;1045457;28;21461;-65
2023/12/17 00:54:45;;;;;;;15.25;8.70;;;;;;;;;;1045935;28;20587;-65
2023/12/17 00:55:15;;;;;;;15.07;8.20;;;;;;;;;;1047525;28;20573;-65
2023/12/17 00:55:46;;;;;;;16.73;7.40;;;;;;;;;;1049509;28;20130;-65
2023/12/17 00:56:17;;;;;;;14.07;8.00;;;;;;;;;;1047998;28;20040;-65
2023/12/17 00:56:48;;;;;;;14.02;7.95;;;;;;;;;;1049912;28;20055;-65
2023/12/17 00:57:18;;;;;;;12.15;7.60;;;;;;;;;;1049107;28;20525;-65
2023/12/17 00:57:49;;;;;;;14.75;7.32;;;;;;;;;;1049253;28;20113;-64
2023/12/17 00:58:19;;;;;;;14.68;8.35;;;;;;;;;;1049662;28;20040;-65
2023/12/17 00:58:50;;;;;;;17.52;8.52;;;;;;;;;;1049253;28;20502;-65
2023/12/17 00:59:20;;;;;;;13.15;8.20;;;;;;;;;;1049720;28;20519;-65
2023/12/17 00:59:51;;;;;;;13.13;7.65;;;;;;;;;;1050174;28;20492;-65
2023/12/17 01:00:22;;;;;;;14.68;8.27;;;;;;;;;;1048815;28;20059;-65
2023/12/17 01:00:52;;;;;;;15.48;8.07;;;;;;;;;;1050647;28;20051;-65
2023/12/17 01:01:23;;;;;;;15.15;9.18;;;;;;;;;;1050343;28;20412;-64
2023/12/17 01:01:53;;;;;;;15.23;7.90;;;;;;;;;;1048031;28;20408;-65
2023/12/17 01:02:24;;;;;;;16.27;9.05;;;;;;;;;;1050646;28;20466;-65
2023/12/17 01:02:54;;;;;;;15.50;8.38;;;;;;;;;;1050920;28;20801;-65
2023/12/17 01:03:25;;;;;;;15.70;10.02;;;;;;;;;;1050411;28;20055;-65
2023/12/17 01:03:55;;;;;;;11.38;7.90;;;;;;;;;;1047278;28;20105;-65
2023/12/17 01:04:26;;;;;;;16.45;8.38;;;;;;;;;;1048565;28;20123;-65
2023/12/17 01:04:57;;;;;;;12.20;7.85;;;;;;;;;;1049438;28;20100;-65
2023/12/17 01:05:28;;;;;;;12.57;8.38;;;;;;;;;;1050525;28;20075;-65
2023/12/17 01:05:59;;;;;;;14.85;9.25;;;;;;;;;;1049115;28;20048;-65
2023/12/17 01:06:29;;;;;;;14.73;8.70;;;;;;;;;;1048057;28;20050;-65
2023/12/17 01:07:00;;;;;;;13.23;9.30;;;;;;;;;;1050558;28;20051;-65
2023/12/17 01:07:30;;;;;;;14.73;7.70;;;;;;;;;;1049412;28;20103;-65
2023/12/17 01:08:01;;;;;;;12.55;8.15;;;;;;;;;;1049261;28;20066;-65
2023/12/17 01:08:32;;;;;;;16.85;7.97;;;;;;;;;;1050328;28;20131;-65
2023/12/17 01:09:03;;;;;;;18.65;8.15;;;;;;;;;;1050118;28;20127;-65
2023/12/17 01:09:33;;;;;;;12.35;7.03;;;;;;;;;;1049992;28;20134;-65
2023/12/17 01:10:04;;;;;;;15.98;8.85;;;;;;;;;;1049752;28;20043;-65
2023/12/17 01:10:35;;;;;;;10.02;7.43;;;;;;;;;;1048405;28;20187;-65
2023/12/17 01:11:05;;;;;;;11.77;7.70;;;;;;;;;;1049670;28;20093;-65
2023/12/17 01:11:36;;;;;;;12.50;7.45;;;;;;;;;;1050074;28;20093;-65
2023/12/17 01:12:07;;;;;;;14.95;7.80;;;;;;;;;;1049383;28;20034;-65
2023/12/17 01:12:38;;;;;;;12.95;8.18;;;;;;;;;;1051192;28;20043;-65
2023/12/17 01:13:08;;;;;;;14.45;7.32;;;;;;;;;;1050035;28;20507;-64
2023/12/17 01:13:39;;;;;;;15.10;7.85;;;;;;;;;;1048333;28;20166;-65
2023/12/17 01:14:09;;;;;;;16.35;9.20;;;;;;;;;;1052037;28;20073;-65
2023/12/17 01:14:40;;;;;;;13.00;6.70;;;;;;;;;;1054421;28;20079;-65
2023/12/17 01:15:12;;;;;;;14.55;7.38;;;;;;;;;;1053501;28;20051;-65
2023/12/17 01:15:42;;;;;;;13.75;7.68;;;;;;;;;;1054977;28;20107;-65
2023/12/17 01:16:13;;;;;;;13.90;7.72;;;;;;;;;;1050206;28;20097;-65
2023/12/17 01:16:43;;;;;;;18.05;8.90;;;;;;;;;;1050434;28;20059;-65
2023/12/17 01:17:14;;;;;;;15.25;8.65;;;;;;;;;;1048571;28;20048;-65
2023/12/17 01:17:44;;;;;;;13.93;8.88;;;;;;;;;;1051541;28;20101;-64
2023/12/17 01:18:15;;;;;;;16.25;8.65;;;;;;;;;;1050117;28;20083;-65
2023/12/17 01:18:45;;;;;;;12.68;7.72;;;;;;;;;;1050410;28;20052;-65
2023/12/17 01:19:16;;;;;;;13.63;7.88;;;;;;;;;;1049805;28;20059;-65
2023/12/17 01:19:47;;;;;;;13.70;8.93;;;;;;;;;;1049032;28;20432;-65
2023/12/17 01:20:17;;;;;;;20.17;8.95;;;;;;;;;;1049579;28;20054;-65
2023/12/17 01:20:48;;;;;;;17.73;8.25;;;;;;;;;;1049669;28;20139;-65
2023/12/17 01:21:18;;;;;;;18.52;8.85;;;;;;;;;;1049900;28;20534;-65
2023/12/17 01:21:49;;;;;;;13.63;8.23;;;;;;;;;;1048546;28;22221;-65
2023/12/17 01:22:19;;;;;;;13.00;8.38;;;;;;;;;;1049743;28;20421;-65
2023/12/17 01:22:50;;;;;;;18.05;9.40;;;;;;;;;;1051316;28;20506;-65
2023/12/17 01:23:20;;;;;;;15.02;8.95;;;;;;;;;;1050578;28;20051;-65
2023/12/17 01:23:52;;;;;;;17.95;9.40;;;;;;;;;;1049174;28;20068;-65
2023/12/17 01:24:22;;;;;;;10.80;7.40;;;;;;;;;;1049761;28;20043;-64
2023/12/17 01:24:54;;;;;;;13.10;8.38;;;;;;;;;;1050415;28;20043;-65
2023/12/17 01:25:25;;;;;;;14.23;8.65;;;;;;;;;;1050265;28;20048;-65
2023/12/17 01:25:55;;;;;;;18.70;8.98;;;;;;;;;;1048573;28;20063;-65
2023/12/17 01:26:26;;;;;;;15.23;8.73;;;;;;;;;;1051028;28;20059;-64
2023/12/17 01:26:57;;;;;;;15.10;7.70;;;;;;;;;;1049177;28;20063;-65
2023/12/17 01:27:28;;;;;;;12.90;7.93;;;;;;;;;;1051523;28;20131;-65
2023/12/17 01:27:58;;;;;;;13.52;8.60;;;;;;;;;;1049546;28;20047;-65
2023/12/17 01:28:29;;;;;;;15.00;8.52;;;;;;;;;;1049231;28;20040;-65
2023/12/17 01:28:59;;;;;;;12.40;8.60;;;;;;;;;;1049016;28;20428;-65
2023/12/17 01:29:30;;;;;;;20.17;9.05;;;;;;;;;;1051184;28;20158;-65
2023/12/17 01:30:00;;;;;;;15.57;8.23;;;;;;;;;;1048613;28;20060;-65
2023/12/17 01:30:31;;;;;;;15.00;8.50;;;;;;;;;;1051019;28;20177;-65
2023/12/17 01:31:01;;;;;;;16.35;8.40;;;;;;;;;;1050758;28;20044;-65
2023/12/17 01:31:32;;;;;;;20.95;9.13;;;;;;;;;;1048800;28;20443;-64
2023/12/17 01:32:03;;;;;;;15.52;9.38;;;;;;;;;;1048436;28;20779;-65
2023/12/17 01:32:34;;;;;;;13.90;8.68;;;;;;;;;;1049062;28;20059;-65
2023/12/17 01:33:04;;;;;;;15.95;7.88;;;;;;;;;;1051006;28;20055;-65
2023/12/17 01:33:34;;;;;;;21.13;7.95;;;;;;;;;;1050281;28;20075;-65
2023/12/17 01:34:07;;;;;;;15.98;9.65;;;;;;;;;;1049604;28;20036;-65
2023/12/17 01:34:37;;;;;;;17.15;9.15;;;;;;;;;;1049533;28;20746;-65
2023/12/17 01:35:08;;;;;;;15.85;9.70;;;;;;;;;;1050753;28;20487;-63
2023/12/17 01:35:39;;;;;;;13.05;7.90;;;;;;;;;;1050487;28;20043;-65
2023/12/17 01:36:09;;;;;;;14.52;8.15;;;;;;;;;;1047710;28;20053;-65
2023/12/17 01:36:41;;;;;;;13.60;8.63;;;;;;;;;;1048343;28;20063;-65
2023/12/17 01:37:12;;;;;;;15.35;9.10;;;;;;;;;;1051051;28;20491;-65
2023/12/17 01:37:42;;;;;;;14.30;7.72;;;;;;;;;;1051266;28;20566;-65
2023/12/17 01:38:13;;;;;;;13.13;8.75;;;;;;;;;;1049261;28;20055;-65
2023/12/17 01:38:43;;;;;;;17.40;9.68;;;;;;;;;;1050316;28;20758;-65
2023/12/17 01:39:14;;;;;;;17.45;9.32;;;;;;;;;;1049871;28;20067;-65
2023/12/17 01:39:44;;;;;;;15.73;9.02;;;;;;;;;;1048348;28;20100;-65
2023/12/17 01:40:15;;;;;;;15.50;8.43;;;;;;;;;;1047935;28;20156;-65
2023/12/17 01:40:46;;;;;;;15.18;8.60;;;;;;;;;;1051546;28;20108;-65
2023/12/17 01:41:16;;;;;;;17.52;9.13;;;;;;;;;;1049530;28;20044;-65
2023/12/17 01:41:47;;;;;;;15.90;8.52;;;;;;;;;;1049456;28;20046;-65
2023/12/17 01:42:17;;;;;;;22.02;9.55;;;;;;;;;;1049371;28;20055;-64
2023/12/17 01:42:51;;;;;;;15.43;8.10;;;;;;;;;;1050782;28;20054;-65
2023/12/17 01:43:22;;;;;;;14.98;7.75;;;;;;;;;;1050055;28;20040;-65
2023/12/17 01:43:52;;;;;;;14.63;8.00;;;;;;;;;;1049465;28;20048;-65
2023/12/17 01:44:23;;;;;;;13.32;8.60;;;;;;;;;;1049133;28;20183;-65
2023/12/17 01:44:53;;;;;;;17.20;8.93;;;;;;;;;;1047411;28;20052;-65
2023/12/17 01:45:24;;;;;;;17.67;9.15;;;;;;;;;;1049930;28;20048;-65
2023/12/17 01:45:55;;;;;;;15.02;8.32;;;;;;;;;;1050389;28;21020;-64
2023/12/17 01:46:26;;;;;;;21.75;9.27;;;;;;;;;;1049668;28;20054;-65
2023/12/17 01:46:57;;;;;;;17.52;10.07;;;;;;;;;;1049359;28;20503;-65
2023/12/17 01:47:28;;;;;;;15.60;9.85;;;;;;;;;;1051445;28;20578;-65
2023/12/17 01:47:59;;;;;;;15.88;10.13;;;;;;;;;;1049648;28;20530;-65
2023/12/17 01:48:30;;;;;;;15.73;9.57;;;;;;;;;;1050540;28;20048;-65
2023/12/17 01:49:01;;;;;;;16.17;9.95;;;;;;;;;;1048990;28;20044;-65
2023/12/17 01:49:31;;;;;;;16.35;9.70;;;;;;;;;;1050655;28;20052;-65
2023/12/17 01:50:03;;;;;;;15.38;8.25;;;;;;;;;;1047298;28;20049;-65
2023/12/17 01:50:33;;;;;;;15.65;10.13;;;;;;;;;;1049279;28;20093;-65
2023/12/17 01:51:04;;;;;;;18.52;10.30;;;;;;;;;;1050796;28;20101;-65
2023/12/17 01:51:36;;;;;;;18.98;9.43;;;;;;;;;;1051085;28;20399;-65
2023/12/17 01:52:08;;;;;;;20.42;9.55;;;;;;;;;;1050847;28;20629;-65
2023/12/17 01:52:39;;;;;;;26.08;11.35;;;;;;;;;;1049673;28;20052;-65
2023/12/17 01:53:10;;;;;;;14.20;8.48;;;;;;;;;;1047954;28;20600;-65
2023/12/17 01:53:40;;;;;;;17.80;9.20;;;;;;;;;;1045797;28;20503;-65
2023/12/17 01:54:11;;;;;;;17.33;9.65;;;;;;;;;;1043918;28;20049;-65
2023/12/17 01:54:42;;;;;;;15.20;8.65;;;;;;;;;;1042096;28;20060;-65
2023/12/17 01:55:13;;;;;;;15.35;8.65;;;;;;;;;;1044509;28;20044;-64
2023/12/17 01:55:46;;;;;;;14.88;9.32;;;;;;;;;;1044940;28;20485;-65
2023/12/17 01:56:16;;;;;;;20.00;10.10;;;;;;;;;;1045201;28;20057;-65
2023/12/17 01:56:48;;;;;;;16.52;10.65;;;;;;;;;;1044988;28;20093;-65
2023/12/17 01:57:19;;;;;;;13.88;9.35;;;;;;;;;;1046308;28;20059;-65
2023/12/17 01:57:50;;;;;;;14.82;8.65;;;;;;;;;;1046114;28;20131;-64
2023/12/17 01:58:21;;;;;;;15.38;9.20;;;;;;;;;;1046219;28;20706;-64
2023/12/17 01:58:53;;;;;;;16.08;9.40;;;;;;;;;;1043959;28;20052;-64
2023/12/17 01:59:24;;;;;;;14.25;9.13;;;;;;;;;;1048909;28;20059;-65
2023/12/17 01:59:55;;;;;;;16.63;9.15;;;;;;;;;;1048421;28;20050;-65
2023/12/17 02:00:26;;;;;;;13.90;8.60;;;;;;;;;;1046362;28;20094;-65
2023/12/17 02:00:58;;;;;;;18.58;10.07;;;;;;;;;;1043528;28;20053;-64
2023/12/17 02:01:28;;;;;;;20.65;10.27;;;;;;;;;;1045698;28;20056;-65
2023/12/17 02:02:01;;;;;;;17.50;9.68;;;;;;;;;;1045164;28;20044;-65
2023/12/17 02:02:31;;;;;;;17.40;9.10;;;;;;;;;;1047204;28;20043;-65
2023/12/17 02:03:05;;;;;;;17.35;9.43;;;;;;;;;;1045428;28;20136;-64
2023/12/17 02:03:36;;;;;;;14.05;9.52;;;;;;;;;;1044878;28;20112;-64
2023/12/17 02:04:06;;;;;;;17.85;9.55;;;;;;;;;;1045412;28;20058;-65
2023/12/17 02:04:37;;;;;;;15.65;10.00;;;;;;;;;;1045464;28;20033;-65
2023/12/17 02:05:08;;;;;;;19.23;10.10;;;;;;;;;;1047691;28;20052;-65
2023/12/17 02:05:39;;;;;;;14.85;9.50;;;;;;;;;;1048378;28;20499;-65
2023/12/17 02:06:09;;;;;;;18.30;9.60;;;;;;;;;;1049241;28;20048;-65
2023/12/17 02:06:40;;;;;;;15.13;9.57;;;;;;;;;;1049775;28;20058;-65
2023/12/17 02:07:10;;;;;;;17.05;9.82;;;;;;;;;;1048989;28;20058;-65
2023/12/17 02:07:41;;;;;;;20.55;9.35;;;;;;;;;;1049973;28;20048;-64
2023/12/17 02:08:12;;;;;;;21.48;9.20;;;;;;;;;;1050281;28;20048;-65
2023/12/17 02:08:42;;;;;;;14.70;9.48;;;;;;;;;;1051206;28;20052;-65
2023/12/17 02:09:13;;;;;;;19.20;10.95;;;;;;;;;;1049098;28;20051;-65
2023/12/17 02:09:44;;;;;;;18.23;9.57;;;;;;;;;;1049048;28;20637;-65
2023/12/17 02:10:14;;;;;;;19.30;10.82;;;;;;;;;;1047406;28;20052;-65
2023/12/17 02:10:45;;;;;;;12.45;8.48;;;;;;;;;;1049885;28;20229;-65
2023/12/17 02:11:15;;;;;;;17.02;10.43;;;;;;;;;;1047261;28;20105;-64
2023/12/17 02:11:46;;;;;;;19.30;11.15;;;;;;;;;;1050314;28;20439;-65
2023/12/17 02:12:27;;;;;;;20.17;10.40;;;;;;;;;;1049295;28;20630;-65
2023/12/17 02:12:58;;;;;;;19.95;10.27;;;;;;;;;;1048724;28;20032;-65
2023/12/17 02:13:29;;;;;;;20.63;10.23;;;;;;;;;;1049251;28;20055;-65
2023/12/17 02:13:59;;;;;;;17.25;10.40;;;;;;;;;;1050605;28;20048;-65
2023/12/17 02:14:30;;;;;;;19.38;9.57;;;;;;;;;;1049395;28;20083;-65
2023/12/17 02:15:00;;;;;;;22.63;11.05;;;;;;;;;;1050252;28;20058;-65
2023/12/17 02:15:31;;;;;;;17.00;9.65;;;;;;;;;;1049157;28;20054;-65
2023/12/17 02:16:02;;;;;;;24.55;10.75;;;;;;;;;;1048391;28;20048;-65
2023/12/17 02:16:32;;;;;;;18.58;10.60;;;;;;;;;;1050045;28;20048;-64
2023/12/17 02:17:03;;;;;;;18.95;10.27;;;;;;;;;;1050596;28;20048;-65
2023/12/17 02:17:33;;;;;;;20.73;10.18;;;;;;;;;;1049072;28;20041;-65
2023/12/17 02:18:05;;;;;;;23.25;10.98;;;;;;;;;;1050609;28;20509;-65
2023/12/17 02:18:35;;;;;;;19.20;11.00;;;;;;;;;;1050195;28;20055;-65
2023/12/17 02:19:06;;;;;;;18.85;9.30;;;;;;;;;;1049276;28;20136;-65
2023/12/17 02:19:37;;;;;;;17.70;10.40;;;;;;;;;;1051016;28;20184;-65
2023/12/17 02:20:08;;;;;;;19.35;10.10;;;;;;;;;;1048026;28;20044;-65
2023/12/17 02:20:39;;;;;;;21.08;10.85;;;;;;;;;;1049995;28;20972;-64
2023/12/17 02:21:09;;;;;;;22.08;10.88;;;;;;;;;;1048475;28;20063;-65
2023/12/17 02:21:40;;;;;;;18.20;10.77;;;;;;;;;;1050143;28;20155;-65
2023/12/17 02:22:10;;;;;;;20.13;11.02;;;;;;;;;;1048834;28;20436;-65
2023/12/17 02:22:43;;;;;;;21.65;10.20;;;;;;;;;;1048796;28;20143;-65
2023/12/17 02:23:13;;;;;;;23.27;9.93;;;;;;;;;;1049669;28;20036;-65
2023/12/17 02:23:44;;;;;;;19.90;11.40;;;;;;;;;;1051056;28;20135;-65
2023/12/17 02:24:15;;;;;;;21.63;11.77;;;;;;;;;;1049189;28;20055;-65
2023/12/17 02:24:45;;;;;;;19.52;11.05;;;;;;;;;;1050446;28;20051;-65
2023/12/17 02:25:16;;;;;;;20.90;10.10;;;;;;;;;;1047951;28;20052;-65
2023/12/17 02:25:47;;;;;;;25.38;11.10;;;;;;;;;;1049649;28;20115;-65
2023/12/17 02:26:17;;;;;;;24.98;11.48;;;;;;;;;;1049410;28;20052;-65
2023/12/17 02:26:48;;;;;;;21.70;11.05;;;;;;;;;;1049450;28;20052;-65
2023/12/17 02:27:23;;;;;;;22.38;10.80;;;;;;;;;;1049887;28;20127;-64
2023/12/17 02:27:57;;;;;;;24.17;11.25;;;;;;;;;;1049390;28;20408;-65
2023/12/17 02:28:27;;;;;;;18.05;10.85;;;;;;;;;;1045437;28;20050;-65
2023/12/17 02:28:58;;;;;;;19.65;10.68;;;;;;;;;;1045290;28;20051;-65
2023/12/17 02:29:28;;;;;;;18.02;10.25;;;;;;;;;;1045022;28;20049;-65
2023/12/17 02:29:59;;;;;;;21.38;10.55;;;;;;;;;;1045556;28;20128;-65
2023/12/17 02:30:29;;;;;;;22.25;10.40;;;;;;;;;;1044737;28;20072;-65
2023/12/17 02:31:00;;;;;;;22.17;9.77;;;;;;;;;;1045261;28;20048;-65
2023/12/17 02:31:30;;;;;;;20.42;11.15;;;;;;;;;;1046317;28;20690;-65
2023/12/17 02:32:01;;;;;;;20.95;10.32;;;;;;;;;;1043859;28;20041;-64
2023/12/17 02:32:31;;;;;;;19.20;10.25;;;;;;;;;;1046212;28;20460;-65
2023/12/17 02:33:02;;;;;;;24.83;11.32;;;;;;;;;;1043665;28;20048;-64
2023/12/17 02:33:33;;;;;;;24.67;11.23;;;;;;;;;;1046694;28;20125;-65
2023/12/17 02:34:03;;;;;;;17.65;9.48;;;;;;;;;;1045630;28;20044;-64
2023/12/17 02:34:34;;;;;;;20.55;11.38;;;;;;;;;;1046405;28;20074;-65
2023/12/17 02:35:04;;;;;;;24.10;13.82;;;;;;;;;;1046708;28;20076;-65
2023/12/17 02:35:35;;;;;;;23.85;12.85;;;;;;;;;;1050301;28;20128;-65
2023/12/17 02:36:06;;;;;;;18.42;10.63;;;;;;;;;;1048441;28;20047;-65
2023/12/17 02:36:37;;;;;;;17.38;10.40;;;;;;;;;;1049680;28;20047;-65
2023/12/17 02:37:07;;;;;;;15.07;10.85;;;;;;;;;;1049048;28;20419;-65
2023/12/17 02:37:38;;;;;;;24.45;11.25;;;;;;;;;;1050049;28;20694;-65
2023/12/17 02:38:08;;;;;;;24.63;11.68;;;;;;;;;;1050674;28;22789;-65
2023/12/17 02:38:39;;;;;;;18.48;11.18;;;;;;;;;;1048405;28;20116;-65
2023/12/17 02:39:10;;;;;;;24.52;11.35;;;;;;;;;;1049337;28;20050;-65
2023/12/17 02:39:40;;;;;;;23.05;11.88;;;;;;;;;;1049860;28;20056;-65
2023/12/17 02:40:11;;;;;;;26.40;11.60;;;;;;;;;;1049658;28;20043;-65
2023/12/17 02:40:45;;;;;;;23.40;11.73;;;;;;;;;;1048523;28;20517;-65
2023/12/17 02:41:16;;;;;;;20.73;11.90;;;;;;;;;;1049815;28;20078;-65
2023/12/17 02:41:46;;;;;;;18.55;11.15;;;;;;;;;;1048379;28;20052;-65
2023/12/17 02:42:18;;;;;;;21.60;11.45;;;;;;;;;;1048512;28;20150;-64
2023/12/17 02:42:48;;;;;;;18.38;10.80;;;;;;;;;;1047616;28;20052;-63
2023/12/17 02:43:19;;;;;;;22.27;11.40;;;;;;;;;;1050405;28;20119;-65
2023/12/17 02:43:50;;;;;;;26.98;11.65;;;;;;;;;;1050144;28;20456;-65
2023/12/17 02:44:20;;;;;;;21.77;11.18;;;;;;;;;;1048229;28;20486;-65
2023/12/17 02:44:51;;;;;;;24.55;14.40;;;;;;;;;;1047657;28;20052;-64
2023/12/17 02:45:22;;;;;;;24.05;10.80;;;;;;;;;;1049636;28;20044;-65
2023/12/17 02:45:52;;;;;;;21.67;9.85;;;;;;;;;;1050105;28;20048;-65
2023/12/17 02:46:22;;;;;;;18.80;11.13;;;;;;;;;;1049227;28;20882;-65
2023/12/17 02:46:54;;;;;;;23.10;11.73;;;;;;;;;;1050357;28;20403;-64
2023/12/17 02:47:25;;;;;;;24.15;11.30;;;;;;;;;;1048961;28;20083;-65
2023/12/17 02:47:55;;;;;;;21.95;11.43;;;;;;;;;;1050827;28;20048;-65
2023/12/17 02:48:26;;;;;;;23.50;11.82;;;;;;;;;;1049970;28;20484;-64
2023/12/17 02:48:56;;;;;;;26.58;12.35;;;;;;;;;;1049144;28;20053;-65
2023/12/17 02:49:27;;;;;;;24.48;12.15;;;;;;;;;;1049640;28;20148;-65
2023/12/17 02:49:58;;;;;;;18.70;11.43;;;;;;;;;;1049362;28;20044;-65
2023/12/17 02:50:28;;;;;;;24.02;10.85;;;;;;;;;;1049348;28;20072;-65
2023/12/17 02:50:59;;;;;;;18.98;11.25;;;;;;;;;;1048179;28;20080;-65
2023/12/17 02:51:31;;;;;;;29.40;12.07;;;;;;;;;;1048638;28;20416;-65
2023/12/17 02:52:02;;;;;;;24.10;10.38;;;;;;;;;;1048186;28;20476;-64
2023/12/17 02:52:32;;;;;;;20.95;10.85;;;;;;;;;;1050135;28;20044;-64
2023/12/17 02:53:03;;;;;;;17.00;9.70;;;;;;;;;;1048442;28;20054;-64
2023/12/17 02:53:34;;;;;;;27.80;12.30;;;;;;;;;;1050004;28;20044;-65
2023/12/17 02:54:04;;;;;;;20.55;10.32;;;;;;;;;;1047475;28;20122;-64
2023/12/17 02:54:35;;;;;;;17.95;9.63;;;;;;;;;;1050566;28;20399;-65
2023/12/17 02:55:06;;;;;;;23.77;11.57;;;;;;;;;;1047203;28;20437;-64
2023/12/17 02:55:37;;;;;;;22.25;10.90;;;;;;;;;;1050005;28;20718;-65
2023/12/17 02:56:08;;;;;;;28.17;12.05;;;;;;;;;;1047780;28;20048;-65
2023/12/17 02:56:39;;;;;;;16.40;8.63;;;;;;;;;;1049338;28;20043;-65
2023/12/17 02:57:10;;;;;;;20.95;10.25;;;;;;;;;;1047460;28;20052;-65
2023/12/17 02:57:40;;;;;;;24.25;12.35;;;;;;;;;;1050453;28;20056;-65
2023/12/17 02:58:11;;;;;;;29.77;11.45;;;;;;;;;;1048930;28;20040;-64
2023/12/17 02:58:42;;;;;;;22.65;11.32;;;;;;;;;;1051085;28;20060;-65
2023/12/17 02:59:13;;;;;;;23.75;12.02;;;;;;;;;;1049449;28;20036;-65
2023/12/17 02:59:44;;;;;;;21.10;11.60;;;;;;;;;;1049545;28;20048;-65
2023/12/17 03:00:15;;;;;;;17.98;11.15;;;;;;;;;;1048699;28;20140;-65
2023/12/17 03:00:45;;;;;;;25.98;11.70;;;;;;;;;;1050629;28;20056;-65
2023/12/17 03:01:16;;;;;;;22.85;11.73;;;;;;;;;;1049550;28;20544;-65